Flight Track Log - Related Links

Times and Time Zones

All times are in EDT time to prevent confusion due to time zone crossing. See the N53NW flight status page for this flight to view local times or setup timezone preferences in your user account.

Time Position Orientation Groundspeed Altitude Reporting Facility
EDT Latitude Longitude Course Direction KTS MPH feet Rate Location/Type
Fri 09:56:44 AM 34.9008 -82.3267 51° Northeast 215 247 2,700  Level Atlanta Center
Fri 09:57:44 AM 34.9503 -82.2650 46° Northeast 259 298 5,100 2,450 Climbing Atlanta Center
Fri 09:58:44 AM 34.9933 -82.2133 45° Northeast 278 320 7,600 2,600 Climbing Atlanta Center
Fri 09:59:44 AM 35.0486 -82.1486 44° Northeast 273 314 10,300 2,650 Climbing Atlanta Center
Fri 10:00:44 AM 35.1039 -82.0789 46° Northeast 273 314 12,900 2,600 Climbing Atlanta Center
Fri 10:01:44 AM 35.1631 -82.0011 47° Northeast 278 320 15,500 2,100 Climbing Atlanta Center
Fri 10:02:00 AM 35.2038 -81.6360 51° Northeast  Level FlightAware Approximate
Fri 10:02:44 AM 35.2286 -81.9361 39° Northeast 284 327 17,100  Level Atlanta Center
Fri 10:03:44 AM 35.3203 -81.9261 North 292 336 17,500 1,100 Climbing Atlanta Center
Fri 10:04:44 AM 35.3686 -81.8281 59° Northeast 305 351 19,300 1,800 Climbing Atlanta Center
Fri 10:05:44 AM 35.4086 -81.7250 65° Northeast 313 360 21,100 1,800 Climbing Atlanta Center
Fri 10:06:44 AM 35.4483 -81.6194 65° Northeast 318 366 22,900 1,550 Climbing Atlanta Center
Fri 10:07:44 AM 35.4878 -81.5136 65° Northeast 330 380 24,200 1,350 Climbing Atlanta Center
Fri 10:08:44 AM 35.5272 -81.4028 66° East 344 396 25,600 1,350 Climbing Atlanta Center
Fri 10:09:44 AM 35.5644 -81.2969 67° East 350 403 26,900 1,450 Climbing Atlanta Center
Fri 10:10:44 AM 35.6181 -81.1775 61° Northeast 370 426 28,500 1,450 Climbing Atlanta Center
Fri 10:11:44 AM 35.6758 -81.0606 59° Northeast 370 426 29,800 1,240 Climbing Atlanta Center
Fri 10:12:45 AM 35.7294 -80.9536 58° Northeast 376 433 31,000 1,200 Climbing Atlanta Center
Fri 10:13:44 AM 35.7808 -80.8417 60° Northeast 371 427 32,200 1,261 Climbing Atlanta Center
Fri 10:14:44 AM 35.8342 -80.7269 60° Northeast 376 433 33,500 1,250 Climbing Atlanta Center
Fri 10:15:44 AM 35.8875 -80.6119 60° Northeast 381 438 34,700 1,339 Climbing Atlanta Center
Fri 10:16:45 AM 35.9383 -80.4969 61° Northeast 381 438 36,200 1,150 Climbing Atlanta Center
Fri 10:17:44 AM 35.9892 -80.3844 61° Northeast 376 433 37,000 294 Climbing Atlanta Center
Fri 10:19:28 AM 36.0914 -80.1700 59° Northeast 424 488 37,000  Level Washington Center
Fri 10:20:29 AM 36.1481 -80.0497 60° Northeast 416 479 37,000  Level Washington Center
Fri 10:21:29 AM 36.2069 -79.9244 60° Northeast 416 479 37,000 -305 Level Washington Center
Fri 10:22:27 AM 36.2636 -79.7961 61° Northeast 416 479 36,400 -807 Descending Washington Center
Fri 10:23:28 AM 36.3306 -79.6733 56° Northeast 427 491 35,400 -934 Descending Washington Center
Fri 10:24:29 AM 36.4089 -79.5769 45° Northeast 427 491 34,500 -958 Descending Washington Center
Fri 10:25:27 AM 36.4958 -79.4753 43° Northeast 427 491 33,500 -958 Descending Washington Center
Fri 10:26:28 AM 36.5828 -79.3683 45° Northeast 427 491 32,600 -1,033 Descending Washington Center
Fri 10:27:29 AM 36.6719 -79.2458 48° Northeast 427 491 31,400 -1,091 Descending Washington Center
Fri 10:28:29 AM 36.7325 -79.1114 61° Northeast 427 491 30,400 -974 Descending Washington Center
Fri 10:29:26 AM 36.7925 -78.9792 60° Northeast 427 491 29,500 -706 Descending Washington Center
Fri 10:30:28 AM 36.8439 -78.8594 62° Northeast 427 491 29,000 -244 Descending Washington Center
Fri 10:31:29 AM 36.9017 -78.7294 61° Northeast 427 491 29,000  Level Washington Center
Fri 10:32:27 AM 36.9592 -78.6019 61° Northeast 427 491 29,000  Level Washington Center
Fri 10:33:28 AM 37.0231 -78.4561 61° Northeast 427 491 29,000  Level Washington Center
Fri 10:34:29 AM 37.0783 -78.3306 61° Northeast 427 491 29,000 -46 Level Washington Center
Fri 10:35:39 AM 37.1444 -78.1714 62° Northeast 427 491 28,900 -462 Descending Washington Center
Fri 10:36:39 AM 37.1992 -78.0456 61° Northeast 421 484 28,000 -793 Descending Washington Center
Fri 10:37:40 AM 37.2539 -77.9142 62° Northeast 421 484 27,300 -496 Descending Washington Center
Fri 10:38:40 AM 37.3086 -77.7825 62° Northeast 421 484 27,000 -595 Descending Washington Center
Fri 10:39:41 AM 37.3631 -77.6561 62° Northeast 416 479 26,100 -992 Descending Washington Center
Fri 10:40:41 AM 37.4153 -77.5267 63° Northeast 411 473 25,000 -1,119 Descending Washington Center
Fri 10:41:39 AM 37.4692 -77.4053 61° Northeast 397 457 23,900 -1,008 Descending Washington Center
Fri 10:42:40 AM 37.5414 -77.3125 46° Northeast 373 429 23,000 -443 Descending Washington Center
Fri 10:43:41 AM 37.6419 -77.2911 10° North 342 394 23,000  Level Washington Center
Fri 10:44:38 AM 37.7422 -77.2700 North 342 394 23,000  Level Washington Center
Fri 10:45:40 AM 37.8447 -77.2511 North 355 409 23,000 -295 Level Washington Center
Fri 10:46:40 AM 37.9453 -77.2297 10° North 365 420 22,400 -1,091 Descending Washington Center
Fri 10:47:41 AM 38.0456 -77.2108 North 365 420 20,800 -1,537 Descending Washington Center
Fri 10:48:41 AM 38.1417 -77.1917 North 365 420 19,300 -1,576 Descending Washington Center
Fri 10:49:39 AM 38.2400 -77.1672 11° North 359 413 17,700 -1,729 Descending Washington Center
Fri 10:50:39 AM 38.3361 -77.1481 North 353 406 15,900 -1,721 Descending Washington Center
Fri 10:51:41 AM 38.4183 -77.0942 27° Northeast 333 383 14,200 -1,525 Descending Washington Center
Fri 10:52:41 AM 38.4817 -77.0186 43° Northeast 323 372 12,800 -1,322 Descending Washington Center
Fri 10:53:39 AM 38.5450 -76.9428 43° Northeast 312 359 11,600 -1,119 Descending Washington Center
Fri 10:54:39 AM 38.6042 -76.8722 43° Northeast 293 337 10,600 -950 Descending Washington Center
Fri 10:55:39 AM 38.6633 -76.7989 44° Northeast 288 331 9,700 -942 Descending Washington Center
Fri 10:56:40 AM 38.7142 -76.7250 49° Northeast 283 326 8,700 -1,091 Descending Washington Center
Fri 10:57:40 AM 38.7503 -76.6406 61° Northeast 277 319 7,500 -1,157 Descending Washington Center
Fri 10:59:00 AM 38.8167 -76.5333 52° Northeast 271 312 6,000 -1,157 Descending Potomac TRACON
Fri 11:00:00 AM 38.8833 -76.5500 349° North 265 305 4,800 -1,000 Descending Potomac TRACON
Fri 11:01:00 AM 38.9500 -76.5833 339° North 258 297 4,000 -400 Descending Potomac TRACON
Fri 11:02:00 AM 39.0000 -76.6667 308° West 269 310 4,000 -397 Level Potomac TRACON
Fri 11:03:01 AM 39.0333 -76.7333 303° West 273 314 3,200 -496 Descending Potomac TRACON
Fri 11:04:01 AM 39.0833 -76.8167 308° West 267 307 3,000 -550 Descending Potomac TRACON
Fri 11:05:01 AM 39.1500 -76.8333 349° North 249 287 2,100 -700 Descending Potomac TRACON
Fri 11:06:01 AM 39.1833 -76.7667 57° Northeast 176 203 1,600 -650 Descending Potomac TRACON
Fri 11:07:01 AM 39.1833 -76.7333 90° East 128 147 800 -800 Descending Potomac TRACON
Fri 11:09:00 AM 39.1667 -76.6667 108° East  Level FlightAware Approximate
Fri 11:16:00 AM 39.1754 -76.6683 108° East  Level Estimated
Fri 11:17:00 AM 39.1754 -76.6683 108° East  Level Estimated
Fri 11:18:00 AM 39.1754 -76.6683 108° East  Level Estimated

Login

Don't have an account? Register now (free) for customized features, flight alerts, and more!